Time;durP1;ratioP1;P1;durP2;ratioP2;P2;SDS_P1;SDS_P2;PMS_P1;PMS_P2;Temp;Humidity;BMP_temperature;BMP_pressure;BME280_temperature;BME280_humidity;BME280_pressure;Samples;Min_cycle;Max_cycle;Signal;HPM_P1;HPM_P2
2023/04/30 00:02:20;;;;;;;5.18;1.77;;;;;;;29.02;26.96;100577.97;4847226;29;20050;-75
2023/04/30 00:04:51;;;;;;;3.38;1.20;;;;;;;29.06;28.18;100565.34;4849469;29;20064;-79
2023/04/30 00:07:20;;;;;;;2.47;1.30;;;;;;;28.96;26.91;100580.91;4839058;29;20050;-75
2023/04/30 00:09:50;;;;;;;2.22;1.23;;;;;;;28.93;27.34;100578.41;4841399;29;20571;-75
2023/04/30 00:12:20;;;;;;;1.88;1.20;;;;;;;28.94;27.10;100561.50;4838859;29;20050;-75
2023/04/30 00:14:48;;;;;;;4.45;1.20;;;;;;;28.84;26.65;100562.91;4836594;29;20052;-73
2023/04/30 00:17:17;;;;;;;3.45;1.30;;;;;;;28.80;26.55;100569.31;4833046;29;20077;-76
2023/04/30 00:19:46;;;;;;;2.95;1.30;;;;;;;28.82;27.24;100567.44;4835182;29;20815;-75
2023/04/30 00:22:14;;;;;;;3.17;1.48;;;;;;;28.82;27.56;100573.63;4840275;29;20427;-74
2023/04/30 00:24:43;;;;;;;2.92;1.10;;;;;;;28.71;26.87;100570.63;4835278;29;20050;-74
2023/04/30 00:27:12;;;;;;;4.43;1.15;;;;;;;28.67;26.95;100565.53;4846794;29;20084;-75
2023/04/30 00:29:42;;;;;;;3.15;1.30;;;;;;;28.70;26.84;100565.34;4828000;29;20050;-72
2023/04/30 00:32:11;;;;;;;3.15;1.60;;;;;;;28.70;27.81;100568.03;4840009;29;20058;-76
2023/04/30 00:34:39;;;;;;;5.43;1.23;;;;;;;28.71;27.76;100561.78;4843900;29;20094;-74
2023/04/30 00:37:08;;;;;;;3.55;1.42;;;;;;;28.77;27.37;100553.47;4843138;29;20049;-75
2023/04/30 00:39:37;;;;;;;3.08;1.83;;;;;;;28.76;27.40;100551.75;4838907;29;20070;-72
2023/04/30 00:42:05;;;;;;;3.28;1.45;;;;;;;28.69;27.46;100555.66;4849424;29;20056;-74
2023/04/30 00:44:34;;;;;;;3.70;1.63;;;;;;;28.66;28.32;100561.16;4839577;29;20059;-75
2023/04/30 00:47:05;;;;;;;4.13;1.45;;;;;;;28.68;27.67;100559.25;4845379;29;20736;-75
2023/04/30 00:49:34;;;;;;;2.97;1.35;;;;;;;28.71;27.50;100553.78;4833526;29;20615;-77
2023/04/30 00:52:02;;;;;;;4.75;1.65;;;;;;;28.71;27.38;100556.44;4841585;29;20050;-75
2023/04/30 00:54:31;;;;;;;9.27;5.32;;;;;;;28.70;27.71;100550.28;4825280;29;20050;-76
2023/04/30 00:57:00;;;;;;;3.15;1.60;;;;;;;28.72;27.21;100544.84;4826990;29;20058;-75
2023/04/30 00:59:29;;;;;;;4.93;1.50;;;;;;;28.72;26.75;100544.84;4838543;29;20085;-75
2023/04/30 01:01:58;;;;;;;2.40;1.52;;;;;;;28.71;27.00;100543.13;4839602;29;20424;-74
2023/04/30 01:04:29;;;;;;;3.08;1.20;;;;;;;28.70;26.58;100544.06;4837446;29;20065;-76
2023/04/30 01:06:59;;;;;;;3.03;1.10;;;;;;;28.70;27.05;100534.28;4839836;29;20054;-74
2023/04/30 01:09:28;;;;;;;6.07;1.55;;;;;;;28.72;26.42;100544.84;4833927;29;20062;-75
2023/04/30 01:12:06;;;;;;;3.58;1.00;;;;;;;28.69;26.66;100534.38;4834370;29;20377;-75
2023/04/30 01:14:44;;;;;;;2.53;1.15;;;;;;;28.71;27.23;100537.81;4831006;29;20064;-79
2023/04/30 01:17:22;;;;;;;3.97;1.17;;;;;;;28.71;27.48;100535.16;4845495;29;20058;-81
2023/04/30 01:19:52;;;;;;;6.38;1.38;;;;;;;28.68;27.83;100536.16;4835489;29;20068;-77
2023/04/30 01:22:38;;;;;;;1.70;1.30;;;;;;;28.56;27.15;100529.63;4837089;29;20349;-76
2023/04/30 01:25:23;;;;;;;2.53;1.20;;;;;;;28.48;27.71;100541.59;4836910;29;20054;-77
2023/04/30 01:28:09;;;;;;;2.22;1.20;;;;;;;28.27;28.03;100538.16;4836156;29;20054;-74
2023/04/30 01:30:39;;;;;;;4.07;1.45;;;;;;;28.16;27.19;100531.53;4835103;29;20061;-75
2023/04/30 01:33:08;;;;;;;3.33;1.40;;;;;;;28.15;28.11;100535.13;4831340;29;20091;-78
2023/04/30 01:36:17;;;;;;;4.68;1.40;;;;;;;28.18;27.87;100534.97;4832389;29;20054;-78
2023/04/30 01:39:02;;;;;;;4.90;1.20;;;;;;;28.19;27.57;100536.69;4825682;29;20288;-76
2023/04/30 01:41:36;;;;;;;2.60;1.20;;;;;;;28.18;27.39;100534.97;4838306;29;20058;-76
2023/04/30 01:44:23;;;;;;;4.53;1.23;;;;;;;28.11;28.01;100530.03;4840470;29;20109;-81
2023/04/30 01:46:59;;;;;;;3.28;1.08;;;;;;;28.02;28.77;100531.31;4831127;29;20223;-77
2023/04/30 01:49:38;;;;;;;1.90;1.00;;;;;;;27.90;29.48;100523.88;4844222;29;20069;-83
2023/04/30 01:52:16;;;;;;;4.75;1.30;;;;;;;27.82;30.19;100521.56;4841656;29;20061;-78
2023/04/30 01:54:52;;;;;;;3.22;1.27;;;;;;;27.68;30.15;100516.88;4832509;29;20057;-79
2023/04/30 01:57:26;;;;;;;3.95;1.20;;;;;;;27.59;29.99;100525.28;4845599;29;20069;-79
2023/04/30 01:59:57;;;;;;;3.08;1.10;;;;;;;27.49;29.82;100518.66;4842475;29;20064;-81
2023/04/30 02:02:25;;;;;;;1.75;0.98;;;;;;;27.42;30.27;100519.84;4843028;29;20046;-77
2023/04/30 02:04:54;;;;;;;3.28;1.00;;;;;;;27.36;29.79;100513.88;4844115;29;20523;-78
2023/04/30 02:07:37;;;;;;;1.60;1.05;;;;;;;27.27;29.87;100514.28;4827158;29;20129;-79
2023/04/30 02:10:07;;;;;;;3.20;0.95;;;;;;;27.19;30.03;100519.03;4837666;29;20057;-79
2023/04/30 02:12:35;;;;;;;2.95;0.93;;;;;;;27.09;29.91;100520.34;4833137;29;20106;-79
2023/04/30 02:15:07;;;;;;;4.55;1.00;;;;;;;27.01;29.60;100514.50;4835935;29;20077;-78
2023/04/30 02:17:36;;;;;;;2.60;0.93;;;;;;;26.94;29.80;100517.44;4840199;29;20063;-75
2023/04/30 02:20:05;;;;;;;3.05;0.80;;;;;;;26.87;30.17;100518.63;4838967;29;20057;-76
2023/04/30 02:22:33;;;;;;;3.75;1.00;;;;;;;26.78;29.65;100515.47;4822180;29;20177;-79
2023/04/30 02:25:02;;;;;;;6.18;1.25;;;;;;;26.67;29.33;100507.97;4830052;29;20058;-79
2023/04/30 02:27:32;;;;;;;2.20;1.00;;;;;;;26.60;29.95;100507.34;4840293;29;20050;-80
2023/04/30 02:30:01;;;;;;;1.95;0.90;;;;;;;26.56;29.79;100508.41;4830609;29;20088;-81
2023/04/30 02:32:31;;;;;;;2.65;0.82;;;;;;;26.50;29.53;100504.19;4845669;29;20114;-79
2023/04/30 02:35:00;;;;;;;5.00;0.98;;;;;;;26.47;30.04;100509.59;4838302;29;20054;-82
2023/04/30 02:37:29;;;;;;;1.75;0.80;;;;;;;26.40;29.98;100510.78;4841086;29;20057;-81
2023/04/30 02:39:58;;;;;;;2.20;1.00;;;;;;;26.30;29.70;100515.59;4838170;29;20061;-80
2023/04/30 02:42:26;;;;;;;5.05;0.90;;;;;;;26.20;29.66;100516.00;4836761;29;20061;-81
2023/04/30 02:44:55;;;;;;;3.65;1.00;;;;;;;26.07;28.86;100513.84;4837677;29;20772;-78
2023/04/30 02:47:24;;;;;;;2.35;0.85;;;;;;;25.91;28.89;100512.72;4841454;29;20050;-80
2023/04/30 02:49:54;;;;;;;2.47;0.75;;;;;;;25.84;28.79;100524.44;4832412;29;20055;-82
2023/04/30 02:52:23;;;;;;;1.58;0.63;;;;;;;25.73;28.58;100516.88;4847726;29;20078;-80
2023/04/30 02:54:51;;;;;;;2.85;1.02;;;;;;;25.63;28.57;100519.00;4848543;29;20516;-81
2023/04/30 02:57:20;;;;;;;2.65;0.77;;;;;;;25.54;29.02;100523.75;4840583;29;20523;-78
2023/04/30 02:59:49;;;;;;;2.72;0.90;;;;;;;25.41;28.75;100521.56;4833489;29;20054;-80
2023/04/30 03:02:20;;;;;;;1.10;0.70;;;;;;;25.31;28.15;100527.22;4837725;29;20053;-80
2023/04/30 03:04:49;;;;;;;2.33;0.88;;;;;;;25.19;29.24;100528.53;4832321;29;20060;-81
2023/04/30 03:07:20;;;;;;;1.88;0.77;;;;;;;25.09;32.87;100522.66;4841649;29;20496;-80
2023/04/30 03:09:48;;;;;;;4.72;1.05;;;;;;;24.98;34.29;100520.38;4823097;29;20059;-80
2023/04/30 03:12:17;;;;;;;4.43;1.20;;;;;;;24.86;33.38;100526.94;4837222;29;20342;-83
2023/04/30 03:14:46;;;;;;;2.83;0.90;;;;;;;24.77;34.26;100531.69;4830770;29;20096;-81
2023/04/30 03:17:14;;;;;;;4.68;1.08;;;;;;;24.60;34.44;100540.16;4836629;29;20502;-82
2023/04/30 03:19:43;;;;;;;2.47;1.13;;;;;;;24.45;35.81;100546.78;4829700;29;20058;-81
2023/04/30 03:22:13;;;;;;;2.97;0.90;;;;;;;24.30;35.93;100541.94;4839968;29;20053;-82
2023/04/30 03:24:43;;;;;;;2.97;1.02;;;;;;;24.16;36.54;100552.94;4840107;29;20732;-80
2023/04/30 03:27:13;;;;;;;2.08;1.00;;;;;;;24.05;37.29;100563.81;4834311;29;20050;-81
2023/04/30 03:29:41;;;;;;;2.15;1.00;;;;;;;23.85;36.18;100556.50;4837506;29;20050;-83
2023/04/30 03:32:10;;;;;;;3.50;0.98;;;;;;;23.82;38.50;100572.41;4836461;29;20054;-83
2023/04/30 03:34:39;;;;;;;2.17;0.93;;;;;;;23.71;39.23;100572.72;4844829;29;20054;-83
2023/04/30 03:37:08;;;;;;;1.63;1.05;;;;;;;23.61;39.02;100584.41;4837187;29;20061;-81
2023/04/30 03:39:36;;;;;;;3.03;0.98;;;;;;;23.50;37.23;100582.09;4845046;29;20061;-82
2023/04/30 03:42:07;;;;;;;2.65;1.02;;;;;;;23.42;37.72;100589.34;4830671;29;20161;-83
2023/04/30 03:44:36;;;;;;;2.95;0.80;;;;;;;23.30;37.61;100587.03;4833563;29;20166;-83
2023/04/30 03:47:05;;;;;;;3.35;1.20;;;;;;;23.19;37.38;100587.28;4832043;29;20165;-83
2023/04/30 03:49:33;;;;;;;3.15;1.00;;;;;;;23.11;40.16;100594.53;4834380;29;20397;-83
2023/04/30 03:52:02;;;;;;;3.03;1.10;;;;;;;23.01;39.77;100599.16;4842522;29;20473;-79
2023/04/30 03:54:32;;;;;;;4.00;1.40;;;;;;;22.93;37.55;100601.06;4840660;29;20054;-81
2023/04/30 03:57:02;;;;;;;2.75;1.00;;;;;;;22.83;40.93;100607.50;4840370;29;20117;-83
2023/04/30 03:59:33;;;;;;;3.15;1.50;;;;;;;22.72;38.34;100608.63;4846774;29;20113;-84
2023/04/30 04:02:02;;;;;;;7.93;1.42;;;;;;;22.58;41.14;100611.53;4847784;29;20057;-80
2023/04/30 04:04:31;;;;;;;5.15;1.80;;;;;;;22.43;40.31;100616.31;4849688;29;20515;-76
2023/04/30 04:07:00;;;;;;;2.47;1.50;;;;;;;22.23;38.94;100620.22;4840318;29;20090;-80
2023/04/30 04:09:33;;;;;;;3.92;1.80;;;;;;;22.15;39.34;100616.84;4841995;29;20057;-82
2023/04/30 04:12:04;;;;;;;5.13;1.60;;;;;;;22.06;39.76;100622.28;4853499;29;20062;-81
2023/04/30 04:14:34;;;;;;;3.53;1.50;;;;;;;21.93;37.63;100625.19;4853588;29;20050;-81
2023/04/30 04:17:04;;;;;;;5.20;1.70;;;;;;;21.79;38.42;100629.84;4843601;29;20072;-77
2023/04/30 04:19:33;;;;;;;2.33;1.50;;;;;;;21.70;41.60;100630.03;4850582;29;20540;-80
2023/04/30 04:22:01;;;;;;;3.20;1.40;;;;;;;21.54;40.45;100625.03;4842087;29;20118;-79
2023/04/30 04:24:30;;;;;;;2.95;1.38;;;;;;;21.48;41.85;100633.03;4840451;29;20065;-81
2023/04/30 04:27:01;;;;;;;4.80;1.30;;;;;;;21.44;42.02;100635.75;4835923;29;20058;-81
2023/04/30 04:29:31;;;;;;;2.63;1.10;;;;;;;21.43;41.34;100642.78;4844513;29;20053;-81
2023/04/30 04:32:01;;;;;;;4.28;1.40;;;;;;;21.40;42.52;100641.94;4846427;29;20140;-80
2023/04/30 04:34:30;;;;;;;4.30;1.10;;;;;;;21.30;39.97;100638.56;4843444;29;20072;-79
2023/04/30 04:36:59;;;;;;;4.32;1.27;;;;;;;21.11;38.42;100641.50;4842546;29;20082;-77
2023/04/30 04:39:28;;;;;;;4.15;1.33;;;;;;;20.87;42.52;100634.88;4834425;29;20050;-79
2023/04/30 04:41:57;;;;;;;6.03;1.80;;;;;;;20.77;44.33;100632.38;4840933;29;20072;-80
2023/04/30 04:44:26;;;;;;;3.08;1.27;;;;;;;20.69;44.67;100636.00;4838621;29;20530;-80
2023/04/30 04:46:55;;;;;;;4.95;1.33;;;;;;;20.55;43.93;100644.91;4843919;29;20054;-75
2023/04/30 04:49:25;;;;;;;2.10;1.02;;;;;;;20.21;40.88;100650.63;4839845;29;20083;-74
2023/04/30 04:51:54;;;;;;;6.05;1.63;;;;;;;20.01;39.34;100653.47;4845150;29;20073;-77
2023/04/30 04:54:22;;;;;;;3.13;1.40;;;;;;;19.90;38.89;100650.94;4835104;29;20521;-77
2023/04/30 04:56:52;;;;;;;4.82;1.65;;;;;;;19.83;39.31;100660.66;4843943;29;20045;-79
2023/04/30 04:59:20;;;;;;;2.42;1.08;;;;;;;19.79;39.32;100653.72;4832080;29;20051;-77
2023/04/30 05:01:49;;;;;;;2.20;1.13;;;;;;;19.68;37.87;100652.91;4844638;29;20054;-80
2023/04/30 05:04:17;;;;;;;4.75;0.95;;;;;;;19.61;39.42;100653.84;4852693;29;20064;-75
2023/04/30 05:06:48;;;;;;;3.00;0.95;;;;;;;19.42;39.05;100651.41;4840687;29;20061;-77
2023/04/30 05:09:16;;;;;;;2.13;1.00;;;;;;;19.27;38.39;100659.38;4849813;29;20140;-75
2023/04/30 05:11:45;;;;;;;1.60;0.80;;;;;;;19.18;36.41;100657.69;4840004;29;20060;-76
2023/04/30 05:14:13;;;;;;;2.40;1.30;;;;;;;19.08;38.32;100658.66;4845258;29;20058;-79
2023/04/30 05:16:42;;;;;;;7.15;1.75;;;;;;;18.99;37.38;100653.47;4847212;29;20849;-76
2023/04/30 05:19:11;;;;;;;7.75;2.40;;;;;;;18.95;37.29;100660.47;4834763;29;20050;-78
2023/04/30 05:21:39;;;;;;;11.85;3.85;;;;;;;18.83;38.36;100665.81;4837148;29;20053;-78
2023/04/30 05:24:10;;;;;;;4.32;1.60;;;;;;;18.74;37.77;100668.44;4841431;29;20061;-76
2023/04/30 05:26:38;;;;;;;5.13;1.10;;;;;;;18.62;37.24;100670.25;4840389;29;20526;-78
2023/04/30 05:29:07;;;;;;;2.60;0.85;;;;;;;18.49;36.47;100679.03;4836688;29;20060;-76
2023/04/30 05:31:36;;;;;;;2.20;0.80;;;;;;;18.36;38.38;100677.34;4836601;29;20464;-77
2023/04/30 05:34:04;;;;;;;1.23;0.93;;;;;;;18.23;38.05;100683.50;4834136;29;20130;-77
2023/04/30 05:36:33;;;;;;;2.22;0.80;;;;;;;18.09;35.37;100684.41;4839573;29;20053;-76
2023/04/30 05:39:01;;;;;;;1.60;0.65;;;;;;;17.99;35.42;100682.69;4835445;29;20054;-78
2023/04/30 05:41:32;;;;;;;1.35;0.90;;;;;;;17.95;35.14;100689.66;4841010;29;20065;-78
2023/04/30 05:44:01;;;;;;;1.95;0.80;;;;;;;17.88;35.83;100689.69;4832010;29;20058;-78
2023/04/30 05:46:30;;;;;;;1.88;1.10;;;;;;;17.79;36.74;100699.25;4837358;29;20056;-79
2023/04/30 05:48:59;;;;;;;1.95;1.25;;;;;;;17.66;40.23;100702.78;4828229;29;20624;-78
2023/04/30 05:51:28;;;;;;;2.67;1.10;;;;;;;17.44;38.57;100687.94;4840990;29;20057;-80
2023/04/30 05:53:57;;;;;;;2.53;1.02;;;;;;;17.38;38.63;100694.03;4836675;29;20054;-79
2023/04/30 05:56:47;;;;;;;0.68;0.60;;;;;;;17.29;38.02;100700.13;4841049;29;20189;-80
2023/04/30 05:59:22;;;;;;;2.97;0.95;;;;;;;17.25;39.82;100702.72;4834283;29;20563;-81
2023/04/30 06:01:50;;;;;;;1.58;1.10;;;;;;;17.20;39.58;100704.47;4836286;29;20065;-79
2023/04/30 06:04:19;;;;;;;1.80;1.20;;;;;;;17.15;42.07;100700.09;4844230;29;20062;-81
2023/04/30 06:06:48;;;;;;;2.90;1.10;;;;;;;17.15;43.32;100707.09;4839949;29;20772;-82
2023/04/30 06:09:16;;;;;;;4.45;0.95;;;;;;;17.14;40.55;100710.59;4844560;29;20133;-81
2023/04/30 06:11:49;;;;;;;2.10;1.23;;;;;;;17.11;40.64;100713.16;4833712;29;20053;-82
2023/04/30 06:14:24;;;;;;;3.08;1.60;;;;;;;17.07;38.74;100714.06;4841944;29;20046;-81
2023/04/30 06:16:52;;;;;;;4.78;1.65;;;;;;;17.01;38.02;100719.25;4843700;29;20566;-81
2023/04/30 06:19:21;;;;;;;3.35;1.20;;;;;;;16.92;38.01;100710.50;4851221;29;20053;-81
2023/04/30 06:21:50;;;;;;;2.35;1.38;;;;;;;16.90;38.07;100717.47;4842528;29;20079;-80
2023/04/30 06:24:18;;;;;;;4.72;1.50;;;;;;;16.87;39.83;100720.09;4839284;29;20089;-80
2023/04/30 06:26:48;;;;;;;3.85;1.30;;;;;;;16.83;38.48;100715.72;4846662;29;20057;-80
2023/04/30 06:29:17;;;;;;;1.75;0.85;;;;;;;16.76;38.52;100722.63;4839167;29;20050;-79
2023/04/30 06:31:46;;;;;;;2.47;1.33;;;;;;;16.68;39.95;100719.13;4837500;29;20065;-79
2023/04/30 06:34:14;;;;;;;3.45;1.30;;;;;;;16.55;39.00;100730.38;4835342;29;20058;-79
2023/04/30 06:36:43;;;;;;;2.95;1.77;;;;;;;16.48;40.56;100718.16;4833758;29;20050;-80
2023/04/30 06:39:11;;;;;;;3.95;1.63;;;;;;;16.43;40.55;100719.91;4839923;29;20197;-81
2023/04/30 06:41:40;;;;;;;4.10;1.40;;;;;;;16.38;39.55;100729.41;4835019;29;20077;-81
2023/04/30 06:44:10;;;;;;;2.40;1.38;;;;;;;16.31;42.61;100736.38;4833444;29;20133;-81
2023/04/30 06:46:39;;;;;;;2.00;1.25;;;;;;;16.28;42.79;100746.78;4831698;29;20056;-80
2023/04/30 06:49:08;;;;;;;5.20;1.13;;;;;;;16.23;40.90;100745.88;4830503;29;20045;-81
2023/04/30 06:51:36;;;;;;;5.32;1.20;;;;;;;16.15;40.59;100750.16;4839738;29;20057;-81
2023/04/30 06:54:06;;;;;;;1.80;1.15;;;;;;;16.07;40.62;100753.59;4842265;29;20563;-80
2023/04/30 06:56:34;;;;;;;3.90;0.85;;;;;;;16.04;40.81;100757.94;4839789;29;20053;-79
2023/04/30 06:59:03;;;;;;;2.80;0.70;;;;;;;15.97;40.35;100757.03;4845732;29;20118;-79
2023/04/30 07:01:33;;;;;;;3.08;1.38;;;;;;;15.88;40.04;100755.22;4838697;29;20141;-80
2023/04/30 07:04:02;;;;;;;2.05;1.13;;;;;;;15.81;40.88;100749.94;4833344;29;20045;-79
2023/04/30 07:06:31;;;;;;;1.45;0.82;;;;;;;15.74;41.69;100753.38;4842893;29;20713;-81
2023/04/30 07:08:59;;;;;;;1.55;0.80;;;;;;;15.66;41.68;100750.66;4833227;29;20515;-82
2023/04/30 07:11:28;;;;;;;3.25;1.00;;;;;;;15.59;42.60;100757.53;4849681;29;20499;-81
2023/04/30 07:13:57;;;;;;;4.47;0.75;;;;;;;15.54;41.98;100761.84;4847605;29;20511;-80
2023/04/30 07:16:26;;;;;;;5.60;1.20;;;;;;;15.49;43.75;100763.56;4842139;29;20110;-81
2023/04/30 07:18:58;;;;;;;4.65;0.85;;;;;;;15.47;43.79;100770.47;4832951;29;20569;-81
2023/04/30 07:21:26;;;;;;;0.82;0.68;;;;;;;15.41;43.59;100776.50;4841586;29;20069;-81
2023/04/30 07:23:55;;;;;;;1.73;0.82;;;;;;;15.36;44.10;100764.28;4833341;29;20165;-81
2023/04/30 07:26:25;;;;;;;1.25;0.80;;;;;;;15.32;43.78;100773.78;4848387;29;20056;-81
2023/04/30 07:28:54;;;;;;;1.05;0.70;;;;;;;15.26;44.17;100772.00;4842085;29;20748;-81
2023/04/30 07:31:22;;;;;;;3.38;1.00;;;;;;;15.20;43.61;100769.31;4846291;29;20136;-81
2023/04/30 07:33:51;;;;;;;2.17;0.82;;;;;;;15.16;44.16;100769.28;4835873;29;20047;-80
2023/04/30 07:36:21;;;;;;;4.35;0.90;;;;;;;15.10;48.84;100770.09;4845352;29;20060;-81
2023/04/30 07:38:50;;;;;;;3.97;1.00;;;;;;;15.04;50.78;100778.69;4832087;29;20152;-80
2023/04/30 07:41:18;;;;;;;1.42;0.93;;;;;;;14.97;49.10;100779.50;4841259;29;20061;-82
2023/04/30 07:43:47;;;;;;;3.45;0.80;;;;;;;14.94;49.87;100787.28;4838649;29;20054;-80
2023/04/30 07:46:15;;;;;;;1.70;0.90;;;;;;;14.89;48.36;100781.16;4838424;29;20102;-80
2023/04/30 07:48:44;;;;;;;2.00;0.70;;;;;;;14.84;47.58;100781.09;4838648;29;20515;-80
2023/04/30 07:51:12;;;;;;;2.58;1.00;;;;;;;14.77;46.88;100786.19;4838616;29;20057;-80
2023/04/30 07:53:43;;;;;;;2.92;0.63;;;;;;;14.71;47.38;100791.34;4841657;29;20050;-81
2023/04/30 07:56:11;;;;;;;1.80;0.55;;;;;;;14.63;47.43;100799.03;4837942;29;20064;-80
2023/04/30 07:58:40;;;;;;;1.15;0.55;;;;;;;14.53;48.83;100791.94;4849498;29;20048;-81
2023/04/30 08:01:09;;;;;;;4.10;0.70;;;;;;;14.41;48.60;100795.25;4855631;29;20141;-80
2023/04/30 08:03:37;;;;;;;6.32;0.77;;;;;;;14.37;48.92;100796.03;4842930;29;20107;-80
2023/04/30 08:06:06;;;;;;;2.28;0.88;;;;;;;14.33;49.64;100802.03;4839100;29;20069;-78
2023/04/30 08:08:35;;;;;;;3.22;0.60;;;;;;;14.30;51.07;100799.41;4849706;29;20056;-81
2023/04/30 08:11:05;;;;;;;4.43;1.02;;;;;;;14.24;51.42;100810.59;4842924;29;20125;-81
2023/04/30 08:13:35;;;;;;;1.15;0.95;;;;;;;14.18;52.16;100805.31;4848360;29;20113;-81
2023/04/30 08:16:04;;;;;;;3.75;0.98;;;;;;;14.08;51.21;100806.00;4844489;29;20758;-80
2023/04/30 08:18:32;;;;;;;1.92;0.73;;;;;;;13.89;52.46;100791.81;4845919;29;20527;-81
2023/04/30 08:21:16;;;;;;;2.70;0.80;;;;;;;13.86;52.83;100808.25;4850219;29;20057;-81
2023/04/30 08:23:45;;;;;;;1.52;0.70;;;;;;;13.78;54.65;100812.44;4844305;29;20053;-78
2023/04/30 08:26:15;;;;;;;0.90;0.70;;;;;;;13.72;55.52;100807.13;4846094;29;20054;-82
2023/04/30 08:28:44;;;;;;;0.73;0.50;;;;;;;13.64;55.51;100796.59;4842002;29;20640;-81
2023/04/30 08:31:13;;;;;;;1.85;0.77;;;;;;;13.61;55.93;100807.81;4849855;29;20049;-81
2023/04/30 08:33:42;;;;;;;2.53;0.82;;;;;;;13.61;56.13;100806.94;4837676;29;20054;-80
2023/04/30 08:36:10;;;;;;;4.13;0.85;;;;;;;13.63;56.82;100800.06;4845374;29;20503;-81
2023/04/30 08:38:39;;;;;;;1.63;0.63;;;;;;;13.63;57.24;100802.66;4842967;29;20054;-80
2023/04/30 08:41:12;;;;;;;3.05;0.90;;;;;;;13.62;57.48;100796.56;4848858;29;20069;-79
2023/04/30 08:43:43;;;;;;;0.73;0.50;;;;;;;13.62;58.16;100796.56;4850568;29;20057;-80
2023/04/30 08:46:13;;;;;;;1.50;0.82;;;;;;;13.61;58.08;100792.22;4842367;29;20065;-80
2023/04/30 08:48:43;;;;;;;2.22;0.70;;;;;;;13.61;58.49;100791.34;4840104;29;20049;-80
2023/04/30 08:51:11;;;;;;;1.80;1.00;;;;;;;13.55;60.21;100786.91;4854267;29;20100;-80
2023/04/30 08:53:42;;;;;;;1.00;0.65;;;;;;;13.51;60.17;100785.09;4851096;29;20061;-82
2023/04/30 08:56:12;;;;;;;2.92;0.77;;;;;;;13.50;61.20;100791.16;4848017;29;20099;-81
2023/04/30 08:58:43;;;;;;;2.58;0.60;;;;;;;13.49;62.38;100794.63;4840717;29;20046;-81
2023/04/30 09:01:12;;;;;;;5.03;0.83;;;;;;;13.47;61.53;100778.09;4839598;29;20053;-81
2023/04/30 09:03:41;;;;;;;2.25;1.35;;;;;;;13.48;61.32;100789.38;4834306;29;20050;-80
2023/04/30 09:06:09;;;;;;;1.65;0.82;;;;;;;13.36;62.79;100796.09;4845817;29;20660;-81
2023/04/30 09:08:45;;;;;;;2.47;0.75;;;;;;;13.28;62.55;100802.00;4842521;29;20041;-81
2023/04/30 09:11:27;;;;;;;2.05;0.70;;;;;;;13.19;62.82;100795.75;4843045;29;20050;-79
2023/04/30 09:13:59;;;;;;;1.80;0.80;;;;;;;13.17;61.99;100800.03;4835331;29;20049;-78
2023/04/30 09:16:29;;;;;;;2.53;0.85;;;;;;;13.16;63.18;100803.47;4842812;29;20289;-79
2023/04/30 09:18:58;;;;;;;3.13;0.75;;;;;;;13.11;63.57;100799.91;4836008;29;20061;-78
2023/04/30 09:21:34;;;;;;;0.85;0.60;;;;;;;13.09;64.43;100798.13;4841553;29;20086;-80
2023/04/30 09:24:04;;;;;;;1.80;0.80;;;;;;;13.04;65.15;100802.38;4845529;29;20076;-79
2023/04/30 09:26:34;;;;;;;1.25;0.80;;;;;;;12.96;65.30;100800.50;4842303;29;20136;-77
2023/04/30 09:29:09;;;;;;;3.33;0.98;;;;;;;12.94;66.04;100793.50;4839822;29;20306;-80
2023/04/30 09:31:38;;;;;;;3.63;0.93;;;;;;;12.92;66.79;100800.41;4834490;29;20519;-77
2023/04/30 09:34:07;;;;;;;1.55;0.65;;;;;;;12.91;66.65;100803.81;4840960;29;20057;-79
2023/04/30 09:36:36;;;;;;;2.30;1.00;;;;;;;12.89;67.38;100805.50;4847647;29;20054;-79
2023/04/30 09:39:10;;;;;;;0.90;0.68;;;;;;;12.87;67.62;100809.78;4842165;29;20133;-80
2023/04/30 09:41:39;;;;;;;3.83;0.98;;;;;;;12.81;69.20;100814.88;4844304;29;20062;-79
2023/04/30 09:44:34;;;;;;;5.40;1.23;;;;;;;12.75;69.50;100811.28;4839771;29;20103;-78
2023/04/30 09:47:05;;;;;;;2.60;1.10;;;;;;;12.71;70.46;100809.50;4836769;29;20058;-79
2023/04/30 09:49:38;;;;;;;2.72;0.85;;;;;;;12.67;71.18;100806.78;4836447;29;20049;-76
2023/04/30 09:52:07;;;;;;;2.13;0.82;;;;;;;12.57;70.99;100805.69;4831468;29;20563;-80
2023/04/30 09:54:37;;;;;;;2.25;0.95;;;;;;;12.57;71.20;100805.69;4837130;29;20132;-79
2023/04/30 09:57:08;;;;;;;0.95;0.63;;;;;;;12.57;71.24;100808.28;4837685;29;20496;-80
2023/04/30 09:59:39;;;;;;;1.67;0.90;;;;;;;12.60;70.94;100807.47;4835120;29;20054;-80
2023/04/30 10:02:09;;;;;;;0.75;0.75;;;;;;;12.63;70.63;100799.78;4833488;29;20051;-79
2023/04/30 10:04:39;;;;;;;3.58;0.70;;;;;;;12.65;70.03;100798.97;4836767;29;20050;-81
2023/04/30 10:07:11;;;;;;;1.02;0.60;;;;;;;12.65;70.80;100798.97;4834240;29;20058;-81
2023/04/30 10:09:45;;;;;;;2.40;0.70;;;;;;;12.65;70.68;100793.78;4840778;29;20049;-81
2023/04/30 10:12:16;;;;;;;0.93;0.75;;;;;;;12.65;70.60;100793.78;4840602;29;20060;-81
2023/04/30 10:14:53;;;;;;;2.67;0.90;;;;;;;12.66;70.81;100790.31;4839319;29;20062;-82
2023/04/30 10:17:24;;;;;;;1.23;0.60;;;;;;;12.70;71.65;100792.13;4839978;29;20551;-81
2023/04/30 10:19:56;;;;;;;0.70;0.67;;;;;;;12.67;71.02;100797.28;4826796;29;20068;-82
2023/04/30 10:22:25;;;;;;;6.47;1.05;;;;;;;12.67;70.31;100792.09;4840441;29;20069;-80
2023/04/30 10:24:54;;;;;;;1.35;0.95;;;;;;;12.67;70.95;100794.69;4845979;29;20054;-82
2023/04/30 10:27:23;;;;;;;2.03;0.65;;;;;;;12.69;70.30;100797.28;4835745;29;20050;-80
2023/04/30 10:29:54;;;;;;;2.03;1.00;;;;;;;12.62;71.95;100798.91;4843194;29;20053;-80
2023/04/30 10:32:24;;;;;;;1.00;0.57;;;;;;;12.51;72.50;100792.59;4837124;29;20107;-80
2023/04/30 10:35:00;;;;;;;0.88;0.60;;;;;;;12.38;74.12;100793.16;4832090;29;20054;-79
2023/04/30 10:37:37;;;;;;;1.40;0.63;;;;;;;12.28;74.53;100786.91;4844014;29;20053;-81
2023/04/30 10:40:08;;;;;;;3.08;0.90;;;;;;;12.21;77.55;100793.66;4839232;29;20053;-79
2023/04/30 10:42:36;;;;;;;1.23;0.70;;;;;;;12.10;77.81;100798.56;4838274;29;20069;-81
2023/04/30 10:45:11;;;;;;;1.13;0.45;;;;;;;11.99;79.61;100789.66;4832226;29;20058;-82
2023/04/30 10:47:44;;;;;;;1.65;0.50;;;;;;;11.91;79.34;100791.19;4842362;29;20042;-80
2023/04/30 10:50:12;;;;;;;;;;;;;;;11.85;80.54;100797.06;4840489;29;20196;-81
2023/04/30 10:52:41;;;;;;;3.22;0.80;;;;;;;11.80;81.91;100797.81;4841725;29;19959;-81
2023/04/30 10:55:10;;;;;;;3.67;0.90;;;;;;;11.80;81.71;100795.22;4845725;29;20056;-81
2023/04/30 10:57:50;;;;;;;2.63;0.80;;;;;;;11.80;82.65;100796.09;4841875;29;20052;-82
2023/04/30 11:06:55;;;;;;;1.58;0.77;;;;;;;11.77;83.11;100797.72;4843494;29;20102;-80
2023/04/30 11:09:37;;;;;;;3.47;1.05;;;;;;;11.77;82.85;100798.56;4839174;29;20126;-82
2023/04/30 11:12:11;;;;;;;1.73;0.88;;;;;;;11.79;81.55;100796.03;4840791;29;20049;-82
2023/04/30 11:14:46;;;;;;;1.45;0.98;;;;;;;11.86;79.97;100801.41;4844848;29;20050;-82
2023/04/30 11:17:24;;;;;;;4.75;1.55;;;;;;;11.82;80.18;100786.63;4838726;29;21140;-81
2023/04/30 11:19:54;;;;;;;1.83;1.15;;;;;;;12.00;80.03;100795.72;4839856;29;20129;-82
2023/04/30 11:22:28;;;;;;;1.17;1.00;;;;;;;12.05;80.13;100799.28;4846729;29;20058;-77
2023/04/30 11:25:05;;;;;;;2.30;1.58;;;;;;;12.09;78.21;100795.94;4849859;29;20475;-81
2023/04/30 11:27:35;;;;;;;2.47;1.25;;;;;;;12.11;77.54;100795.13;4846171;29;20062;-79
2023/04/30 11:30:12;;;;;;;2.78;1.25;;;;;;;12.14;77.80;100803.00;4843837;29;20054;-77
2023/04/30 11:32:47;;;;;;;2.20;1.30;;;;;;;12.17;77.82;100804.78;4842072;29;20261;-81
2023/04/30 11:35:19;;;;;;;2.33;0.90;;;;;;;12.19;77.55;100803.13;4854848;29;20084;-80
2023/04/30 11:37:49;;;;;;;3.60;0.98;;;;;;;12.20;77.61;100812.63;4842216;29;20058;-80
2023/04/30 11:40:17;;;;;;;2.15;0.75;;;;;;;12.20;77.47;100812.63;4845197;29;20140;-80
2023/04/30 11:42:47;;;;;;;4.20;1.13;;;;;;;12.22;77.20;100810.97;4848972;29;20061;-79
2023/04/30 11:45:19;;;;;;;1.70;1.15;;;;;;;12.20;77.77;100803.97;4846626;29;20128;-78
2023/04/30 11:47:50;;;;;;;1.27;0.93;;;;;;;12.24;77.76;100805.81;4846233;29;20057;-81